Darstellungsparameter: Aktuell verwendete Einstellungen:
Skalierung der Graphiken ... ?
xyx+y,   Skalierungsfaktor:      Skalierung: Modus: x, Faktor: 1
Darstellungszeitraum ... ?
Vom - - bis: - -   Zeitraum: 17.08.2022 - 18.08.2022
Min/Max/Avg-Anzeige ... ?
Zeige MMA aktuell
Zeige MMA Monat
Zeige MMA alles
Zeige --A aktuell
Zeige --A Monat
Zeige --A alles
Keine MMA-Anzeige
MMA:
Keine MMA-Graphiken
MMA-Basis: 17.08.2022 - 18.08.2022
Quicknavigation für Darstellung... ?
Tage:      1T, 2T, 3T, 5T -1T -2T -3T -5T +1T +2T +3T +5T
Wochen: 1W, 2W, 3W -1W -2W -3W +1W +2W +3W
Monate: 1M, 3M, 6M -1M -3M -6M +1M +3M +6M
Jahre:    1J, 3J, 5J, 10J -1J -3J -5J -10J +1J +3J +5J +10J
Nutze für die Darstellung ... ?
Originaldaten oder Mittelwerte auf ...
Stundenbasis Tagesbasis Wochenbasis
Monatsbasis Jahresbasis      Datenbasis: Original-Daten
Darstellen als:
Statistik (Auto) Statistik J:M      Darstellung:
Zur Graphik,    zurück zur Übersicht aller Sensoren.
 
Tabellarische Datenbersicht: ?
 
Sensor: Nr:Datum:Temp:Abs-Feuchte:Windchill:Wind:
Aussen-T/F 1 17-08-2022 02:00:00 18 C 12.44 g/m*3 18 C 0 km/h
2 17-08-2022 02:05:00 18 C 12.44 g/m*3 18 C 0 km/h
3 17-08-2022 02:10:00 17.9 C 12.37 g/m*3 17.9 C 0 km/h
4 17-08-2022 02:15:00 17.9 C 12.37 g/m*3 17.9 C 0 km/h
5 17-08-2022 02:20:00 17.9 C 12.37 g/m*3 17.9 C 0 km/h
6 17-08-2022 02:25:00 17.8 C 12.29 g/m*3 17.8 C 0 km/h
7 17-08-2022 02:30:00 17.8 C 12.45 g/m*3 17.8 C 0 km/h
8 17-08-2022 02:35:00 17.8 C 12.45 g/m*3 17.8 C 0 km/h
9 17-08-2022 02:40:00 17.7 C 12.37 g/m*3 17.7 C 0 km/h
10 17-08-2022 02:45:00 17.7 C 12.37 g/m*3 17.7 C 0 km/h
11 17-08-2022 02:50:00 17.6 C 12.3 g/m*3 17.6 C 0 km/h
12 17-08-2022 02:55:00 17.6 C 12.3 g/m*3 17.6 C 0 km/h
13 17-08-2022 03:00:00 17.5 C 12.23 g/m*3 17.5 C 0 km/h
14 17-08-2022 03:05:00 17.4 C 12.15 g/m*3 17.4 C 0 km/h
15 17-08-2022 03:10:00 17.3 C 12.08 g/m*3 17.3 C 0 km/h
16 17-08-2022 03:15:00 17.3 C 12.08 g/m*3 17.3 C 0 km/h
17 17-08-2022 03:20:00 17.2 C 12.01 g/m*3 17.2 C 0 km/h
18 17-08-2022 03:25:00 17.2 C 12.15 g/m*3 17.2 C 0 km/h
19 17-08-2022 03:30:00 17.1 C 12.08 g/m*3 17.1 C 0 km/h
20 17-08-2022 03:35:00 17 C 12.01 g/m*3 17 C 0 km/h
21 17-08-2022 03:40:00 17 C 12.15 g/m*3 17 C 0 km/h
22 17-08-2022 03:45:00 16.9 C 12.08 g/m*3 16.9 C 0 km/h
23 17-08-2022 03:50:00 16.9 C 12.08 g/m*3 16.9 C 0 km/h
24 17-08-2022 03:55:00 16.9 C 12.08 g/m*3 16.9 C 0 km/h
25 17-08-2022 04:00:00 16.9 C 12.23 g/m*3 16.9 C 0 km/h
Sensor: Nr:Datum:Temp:Abs-Feuchte:Windchill:Wind:
Aussen-T/F 26 17-08-2022 04:05:00 16.9 C 12.23 g/m*3 16.9 C 0 km/h
27 17-08-2022 04:10:00 16.9 C 12.23 g/m*3 16.9 C 0 km/h
28 17-08-2022 04:15:00 16.9 C 12.23 g/m*3 16.9 C 0 km/h
29 17-08-2022 04:20:00 16.9 C 12.23 g/m*3 16.9 C 0 km/h
30 17-08-2022 04:25:00 16.9 C 12.23 g/m*3 16.9 C 0 km/h
31 17-08-2022 04:30:00 16.9 C 12.23 g/m*3 16.9 C 0 km/h
32 17-08-2022 04:35:00 16.9 C 12.23 g/m*3 16.9 C 0 km/h
33 17-08-2022 04:40:00 16.9 C 12.23 g/m*3 16.9 C 0 km/h
34 17-08-2022 04:45:00 16.9 C 12.23 g/m*3 16.9 C 0 km/h
35 17-08-2022 04:50:00 16.9 C 12.23 g/m*3 16.9 C 0 km/h
36 17-08-2022 04:55:00 16.9 C 12.23 g/m*3 16.9 C 0 km/h
37 17-08-2022 05:00:00 16.9 C 12.23 g/m*3 16.9 C 0 km/h
38 17-08-2022 05:05:00 16.9 C 12.37 g/m*3 16.9 C 0 km/h
39 17-08-2022 05:10:00 16.9 C 12.37 g/m*3 16.9 C 0 km/h
40 17-08-2022 05:15:00 16.9 C 12.37 g/m*3 16.9 C 0 km/h
41 17-08-2022 05:20:00 16.9 C 12.37 g/m*3 16.9 C 0 km/h
42 17-08-2022 05:25:00 16.9 C 12.37 g/m*3 16.9 C 0 km/h
43 17-08-2022 05:30:00 16.9 C 12.37 g/m*3 16.9 C 0 km/h
44 17-08-2022 05:35:00 16.9 C 12.37 g/m*3 16.9 C 0 km/h
45 17-08-2022 05:40:00 16.9 C 12.37 g/m*3 16.9 C 0 km/h
46 17-08-2022 05:45:00 16.9 C 12.37 g/m*3 16.9 C 0 km/h
47 17-08-2022 05:50:00 16.9 C 12.37 g/m*3 16.9 C 0 km/h
48 17-08-2022 05:55:00 16.9 C 12.37 g/m*3 16.9 C 0 km/h
49 17-08-2022 06:00:00 16.9 C 12.37 g/m*3 16.9 C 0 km/h
50 17-08-2022 06:05:00 16.9 C 12.37 g/m*3 16.9 C 0 km/h
Sensor: Nr:Datum:Temp:Abs-Feuchte:Windchill:Wind:
Aussen-T/F 51 17-08-2022 06:10:00 16.9 C 12.37 g/m*3 16.9 C 0 km/h
52 17-08-2022 06:15:00 16.9 C 12.37 g/m*3 16.9 C 0 km/h
53 17-08-2022 06:20:00 16.9 C 12.37 g/m*3 16.9 C 0 km/h
54 17-08-2022 06:25:00 16.9 C 12.37 g/m*3 16.9 C 0 km/h
55 17-08-2022 06:30:00 16.8 C 12.3 g/m*3 16.8 C 0 km/h
56 17-08-2022 06:35:00 16.8 C 12.3 g/m*3 16.8 C 0 km/h
57 17-08-2022 06:40:00 16.8 C 12.3 g/m*3 16.8 C 0 km/h
58 17-08-2022 06:45:00 16.8 C 12.3 g/m*3 16.8 C 0 km/h
59 17-08-2022 06:50:00 16.8 C 12.3 g/m*3 16.8 C 0 km/h
60 17-08-2022 06:55:00 16.8 C 12.3 g/m*3 16.8 C 0 km/h
61 17-08-2022 07:00:00 16.8 C 12.3 g/m*3 16.8 C 0 km/h
62 17-08-2022 07:05:00 16.8 C 12.3 g/m*3 16.8 C 0 km/h
63 17-08-2022 07:10:00 16.8 C 12.44 g/m*3 16.8 C 0 km/h
64 17-08-2022 07:15:00 16.8 C 12.44 g/m*3 16.8 C 0 km/h
65 17-08-2022 07:20:00 16.9 C 12.51 g/m*3 16.9 C 0 km/h
66 17-08-2022 07:25:00 16.9 C 12.51 g/m*3 16.9 C 0 km/h
67 17-08-2022 07:30:00 17.1 C 12.66 g/m*3 17.1 C 0 km/h
68 17-08-2022 07:35:00 17.1 C 12.66 g/m*3 17.1 C 0 km/h
69 17-08-2022 07:40:00 17.2 C 12.89 g/m*3 17.2 C 0 km/h
70 17-08-2022 07:45:00 17.3 C 12.96 g/m*3 17.3 C 0 km/h
71 17-08-2022 07:50:00 17.4 C 13.04 g/m*3 17.4 C 0 km/h
72 17-08-2022 07:55:00 17.5 C 13.12 g/m*3 17.5 C 0 km/h
73 17-08-2022 08:00:00 17.6 C 13.05 g/m*3 17.6 C 1.6 km/h
74 17-08-2022 08:05:00 17.8 C 13.05 g/m*3 17.8 C 1.6 km/h
75 17-08-2022 08:10:00 17.9 C 12.98 g/m*3 17.9 C 0 km/h
Sensor: Nr:Datum:Temp:Abs-Feuchte:Windchill:Wind:
Aussen-T/F 76 17-08-2022 08:15:00 18.1 C 13.13 g/m*3 18.1 C 0 km/h
77 17-08-2022 08:20:00 18.3 C 13.13 g/m*3 18.3 C 0 km/h
78 17-08-2022 08:25:00 18.4 C 13.05 g/m*3 18.4 C 0 km/h
79 17-08-2022 08:30:00 18.6 C 13.05 g/m*3 18.6 C 1.6 km/h
80 17-08-2022 08:35:00 18.8 C 13.21 g/m*3 18.8 C 3.2 km/h
81 17-08-2022 08:40:00 18.9 C 13.12 g/m*3 18.9 C 0 km/h
82 17-08-2022 08:45:00 19 C 13.2 g/m*3 19 C 0 km/h
83 17-08-2022 08:50:00 19.1 C 13.28 g/m*3 19.1 C 0 km/h
84 17-08-2022 08:55:00 19.2 C 13.36 g/m*3 19.2 C 0 km/h
85 17-08-2022 09:00:00 19.3 C 13.27 g/m*3 19.3 C 0 km/h
86 17-08-2022 09:05:00 19.4 C 13.35 g/m*3 19.4 C 0 km/h
87 17-08-2022 09:10:00 19.5 C 13.43 g/m*3 19.5 C 0 km/h
88 17-08-2022 09:15:00 19.6 C 13.51 g/m*3 19.6 C 0 km/h
89 17-08-2022 09:20:00 19.7 C 13.58 g/m*3 19.7 C 0 km/h
90 17-08-2022 09:25:00 19.7 C 13.41 g/m*3 19.7 C 0 km/h
91 17-08-2022 09:30:00 19.8 C 13.49 g/m*3 19.8 C 0 km/h
92 17-08-2022 09:35:00 19.9 C 13.57 g/m*3 19.9 C 0 km/h
93 17-08-2022 09:40:00 20.2 C 13.64 g/m*3 20.2 C 0 km/h
94 17-08-2022 09:45:00 20.3 C 13.72 g/m*3 20.3 C 0 km/h
95 17-08-2022 09:50:00 20.4 C 13.62 g/m*3 20.4 C 0 km/h
96 17-08-2022 09:55:00 20.6 C 13.6 g/m*3 20.6 C 0 km/h
97 17-08-2022 10:00:00 20.7 C 13.68 g/m*3 20.7 C 0 km/h
98 17-08-2022 10:05:00 20.7 C 13.68 g/m*3 20.7 C 0 km/h
99 17-08-2022 10:10:00 20.8 C 13.76 g/m*3 20.8 C 0 km/h
100 17-08-2022 10:15:00 20.8 C 13.76 g/m*3 20.8 C 0 km/h
Sensor: Nr:Datum:Temp:Abs-Feuchte:Windchill:Wind:
Aussen-T/F 101 17-08-2022 10:20:00 20.9 C 14.02 g/m*3 20.9 C 0 km/h
102 17-08-2022 10:25:00 21 C 13.92 g/m*3 21 C 0 km/h
103 17-08-2022 10:30:00 21.1 C 14 g/m*3 21.1 C 0 km/h
104 17-08-2022 10:35:00 21.2 C 13.71 g/m*3 21.2 C 1.6 km/h
105 17-08-2022 10:40:00 21.4 C 13.69 g/m*3 21.4 C 0 km/h
106 17-08-2022 10:45:00 21.6 C 13.66 g/m*3 21.6 C 3.2 km/h
107 17-08-2022 10:50:00 21.7 C 13.73 g/m*3 21.7 C 0 km/h
108 17-08-2022 10:55:00 21.8 C 13.81 g/m*3 21.8 C 1.6 km/h
109 17-08-2022 11:00:00 21.9 C 13.7 g/m*3 21.9 C 3.2 km/h
110 17-08-2022 11:05:00 22 C 13.78 g/m*3 22 C 4.8 km/h
111 17-08-2022 11:10:00 22.1 C 13.47 g/m*3 22.1 C 4.8 km/h
112 17-08-2022 11:15:00 22.3 C 13.62 g/m*3 22.3 C 4.8 km/h
113 17-08-2022 11:20:00 22.5 C 13.78 g/m*3 22.5 C 4.8 km/h
114 17-08-2022 11:25:00 22.7 C 13.74 g/m*3 22.7 C 6.4 km/h
115 17-08-2022 11:30:00 22.8 C 13.61 g/m*3 22.8 C 8.1 km/h
116 17-08-2022 11:35:00 23 C 13.57 g/m*3 23 C 8.1 km/h
117 17-08-2022 11:40:00 23.1 C 13.85 g/m*3 23.1 C 6.4 km/h
118 17-08-2022 11:45:00 23.1 C 13.64 g/m*3 23.1 C 6.4 km/h
119 17-08-2022 11:50:00 23.2 C 13.72 g/m*3 23.2 C 6.4 km/h
120 17-08-2022 11:55:00 23.3 C 13.8 g/m*3 23.3 C 4.8 km/h
121 17-08-2022 12:00:00 23.4 C 13.67 g/m*3 23.4 C 4.8 km/h
122 17-08-2022 12:05:00 23.5 C 13.96 g/m*3 23.5 C 4.8 km/h
123 17-08-2022 12:10:00 23.7 C 13.9 g/m*3 23.7 C 6.4 km/h
124 17-08-2022 12:15:00 24 C 13.92 g/m*3 24 C 6.4 km/h
125 17-08-2022 12:20:00 24.3 C 14.16 g/m*3 24.3 C 4.8 km/h
Sensor: Nr:Datum:Temp:Abs-Feuchte:Windchill:Wind:
Aussen-T/F 126 17-08-2022 12:25:00 24.5 C 14.1 g/m*3 24.5 C 4.8 km/h
127 17-08-2022 12:30:00 24.7 C 14.03 g/m*3 24.7 C 4.8 km/h
128 17-08-2022 12:35:00 24.8 C 14.11 g/m*3 24.8 C 6.4 km/h
129 17-08-2022 12:40:00 24.8 C 14.11 g/m*3 24.8 C 8.1 km/h
130 17-08-2022 12:45:00 24.8 C 13.88 g/m*3 24.8 C 9.7 km/h
131 17-08-2022 12:50:00 24.9 C 14.19 g/m*3 24.9 C 9.7 km/h
132 17-08-2022 12:55:00 25.2 C 14.2 g/m*3 25.2 C 11.3 km/h
133 17-08-2022 13:00:00 25.4 C 14.13 g/m*3 25.4 C 11.3 km/h
134 17-08-2022 13:05:00 25.7 C 14.36 g/m*3 25.7 C 8.1 km/h
135 17-08-2022 13:10:00 26.5 C 14.77 g/m*3 26.5 C 14.5 km/h
136 17-08-2022 13:15:00 27.1 C 14.49 g/m*3 27.1 C 14.5 km/h
137 17-08-2022 13:20:00 27.6 C 14.1 g/m*3 27.6 C 12.9 km/h
138 17-08-2022 13:25:00 27.8 C 14.26 g/m*3 27.8 C 11.3 km/h
139 17-08-2022 13:30:00 27.9 C 14.33 g/m*3 27.9 C 9.7 km/h
140 17-08-2022 13:35:00 27.9 C 14.06 g/m*3 27.9 C 14.5 km/h
141 17-08-2022 13:40:00 27.8 C 13.99 g/m*3 27.8 C 14.5 km/h
142 17-08-2022 13:45:00 27.8 C 13.99 g/m*3 27.8 C 11.3 km/h
143 17-08-2022 13:50:00 27.9 C 14.06 g/m*3 27.9 C 8.1 km/h
144 17-08-2022 13:55:00 27.9 C 13.79 g/m*3 27.9 C 6.4 km/h
145 17-08-2022 14:00:00 27.6 C 13.57 g/m*3 27.6 C 9.7 km/h
146 17-08-2022 14:05:00 27.3 C 13.61 g/m*3 27.3 C 9.7 km/h
147 17-08-2022 14:10:00 27.1 C 13.72 g/m*3 27.1 C 4.8 km/h
148 17-08-2022 14:15:00 27.1 C 13.97 g/m*3 27.1 C 8.1 km/h
149 17-08-2022 14:20:00 27.5 C 14.02 g/m*3 27.5 C 9.7 km/h
150 17-08-2022 14:25:00 27.8 C 13.99 g/m*3 27.8 C 11.3 km/h
Sensor: Nr:Datum:Temp:Abs-Feuchte:Windchill:Wind:
Aussen-T/F 151 17-08-2022 14:30:00 27.8 C 13.72 g/m*3 27.8 C 9.7 km/h
152 17-08-2022 14:35:00 27.9 C 13.79 g/m*3 27.9 C 8.1 km/h
153 17-08-2022 14:40:00 27.9 C 13.79 g/m*3 27.9 C 8.1 km/h
154 17-08-2022 14:45:00 27.9 C 14.06 g/m*3 27.9 C 4.8 km/h
155 17-08-2022 14:50:00 28 C 13.87 g/m*3 28 C 6.4 km/h
156 17-08-2022 14:55:00 28 C 13.87 g/m*3 28 C 9.7 km/h
157 17-08-2022 15:00:00 27.9 C 13.79 g/m*3 27.9 C 6.4 km/h
158 17-08-2022 15:05:00 28 C 13.87 g/m*3 28 C 3.2 km/h
159 17-08-2022 15:10:00 28.3 C 14.1 g/m*3 28.3 C 4.8 km/h
160 17-08-2022 15:15:00 28.7 C 13.85 g/m*3 28.7 C 9.7 km/h
161 17-08-2022 15:20:00 28.8 C 13.92 g/m*3 28.8 C 6.4 km/h
162 17-08-2022 15:25:00 28.8 C 13.92 g/m*3 28.8 C 3.2 km/h
163 17-08-2022 15:30:00 28.8 C 13.92 g/m*3 28.8 C 1.6 km/h
164 17-08-2022 15:35:00 28.9 C 14 g/m*3 28.9 C 6.4 km/h
165 17-08-2022 15:40:00 29.1 C 14.15 g/m*3 29.1 C 6.4 km/h
166 17-08-2022 15:45:00 29.3 C 13.72 g/m*3 29.3 C 9.7 km/h
167 17-08-2022 15:50:00 29 C 13.79 g/m*3 29 C 9.7 km/h
168 17-08-2022 15:55:00 28.6 C 13.77 g/m*3 28.6 C 6.4 km/h
169 17-08-2022 16:00:00 28.4 C 13.62 g/m*3 28.4 C 8.1 km/h
170 17-08-2022 16:05:00 28.3 C 13.55 g/m*3 28.3 C 6.4 km/h
171 17-08-2022 16:10:00 28.3 C 13.82 g/m*3 28.3 C 6.4 km/h
172 17-08-2022 16:15:00 28.7 C 14.13 g/m*3 28.7 C 6.4 km/h
173 17-08-2022 16:20:00 29.3 C 14.01 g/m*3 29.3 C 3.2 km/h
174 17-08-2022 16:25:00 30 C 13.95 g/m*3 30 C 8.1 km/h
175 17-08-2022 16:30:00 30.2 C 13.79 g/m*3 30.2 C 3.2 km/h
Sensor: Nr:Datum:Temp:Abs-Feuchte:Windchill:Wind:
Aussen-T/F 176 17-08-2022 16:35:00 30.6 C 14.41 g/m*3 30.6 C 6.4 km/h
177 17-08-2022 16:40:00 30.6 C 13.78 g/m*3 30.6 C 4.8 km/h
178 17-08-2022 16:45:00 30.2 C 13.79 g/m*3 30.2 C 6.4 km/h
179 17-08-2022 16:50:00 29.7 C 13.13 g/m*3 29.7 C 9.7 km/h
180 17-08-2022 16:55:00 29.5 C 13.58 g/m*3 29.5 C 9.7 km/h
181 17-08-2022 17:00:00 29.5 C 13.58 g/m*3 29.5 C 6.4 km/h
182 17-08-2022 17:05:00 29.4 C 13.8 g/m*3 29.4 C 12.9 km/h
183 17-08-2022 17:10:00 29.3 C 14.01 g/m*3 29.3 C 12.9 km/h
184 17-08-2022 17:15:00 29.2 C 14.23 g/m*3 29.2 C 11.3 km/h
185 17-08-2022 17:20:00 29.3 C 14.01 g/m*3 29.3 C 9.7 km/h
186 17-08-2022 17:25:00 28.9 C 14 g/m*3 28.9 C 12.9 km/h
187 17-08-2022 17:30:00 29 C 14.07 g/m*3 29 C 11.3 km/h
188 17-08-2022 17:35:00 29.1 C 13.86 g/m*3 29.1 C 11.3 km/h
189 17-08-2022 17:40:00 29.2 C 14.23 g/m*3 29.2 C 11.3 km/h
190 17-08-2022 17:45:00 29.4 C 13.8 g/m*3 29.4 C 12.9 km/h
191 17-08-2022 17:50:00 29.3 C 14.01 g/m*3 29.3 C 11.3 km/h
192 17-08-2022 17:55:00 29.4 C 14.09 g/m*3 29.4 C 8.1 km/h
193 17-08-2022 18:00:00 29.7 C 14.02 g/m*3 29.7 C 8.1 km/h
194 17-08-2022 18:05:00 29.8 C 14.1 g/m*3 29.8 C 9.7 km/h
195 17-08-2022 18:10:00 29.6 C 13.95 g/m*3 29.6 C 8.1 km/h
196 17-08-2022 18:15:00 29.5 C 13.87 g/m*3 29.5 C 14.5 km/h
197 17-08-2022 18:20:00 29.2 C 13.94 g/m*3 29.2 C 16.1 km/h
198 17-08-2022 18:25:00 28.8 C 13.92 g/m*3 28.8 C 12.9 km/h
199 17-08-2022 18:30:00 28.7 C 14.13 g/m*3 28.7 C 9.7 km/h
200 17-08-2022 18:35:00 28.6 C 14.05 g/m*3 28.6 C 8.1 km/h
Sensor: Nr:Datum:Temp:Abs-Feuchte:Windchill:Wind:
Aussen-T/F 201 17-08-2022 18:40:00 28.6 C 13.77 g/m*3 28.6 C 11.3 km/h
202 17-08-2022 18:45:00 28.4 C 13.9 g/m*3 28.4 C 9.7 km/h
203 17-08-2022 18:50:00 28.1 C 13.95 g/m*3 28.1 C 11.3 km/h
204 17-08-2022 18:55:00 27.8 C 13.99 g/m*3 27.8 C 9.7 km/h
205 17-08-2022 19:00:00 27.7 C 14.18 g/m*3 27.7 C 9.7 km/h
206 17-08-2022 19:05:00 27.6 C 14.37 g/m*3 27.6 C 4.8 km/h
207 17-08-2022 19:10:00 27.6 C 14.1 g/m*3 27.6 C 8.1 km/h
208 17-08-2022 19:15:00 27.4 C 14.21 g/m*3 27.4 C 11.3 km/h
209 17-08-2022 19:20:00 27.3 C 14.13 g/m*3 27.3 C 8.1 km/h
210 17-08-2022 19:25:00 27.2 C 14.05 g/m*3 27.2 C 9.7 km/h
211 17-08-2022 19:30:00 27 C 14.15 g/m*3 27 C 8.1 km/h
212 17-08-2022 19:35:00 26.8 C 14 g/m*3 26.8 C 12.9 km/h
213 17-08-2022 19:40:00 26.6 C 14.1 g/m*3 26.6 C 9.7 km/h
214 17-08-2022 19:45:00 26.5 C 14.02 g/m*3 26.5 C 9.7 km/h
215 17-08-2022 19:50:00 26.4 C 14.19 g/m*3 26.4 C 8.1 km/h
216 17-08-2022 19:55:00 26.3 C 14.11 g/m*3 26.3 C 8.1 km/h
217 17-08-2022 20:00:00 26.3 C 14.11 g/m*3 26.3 C 9.7 km/h
218 17-08-2022 20:05:00 26.2 C 14.28 g/m*3 26.2 C 6.4 km/h
219 17-08-2022 20:10:00 26.1 C 14.2 g/m*3 26.1 C 8.1 km/h
220 17-08-2022 20:15:00 25.9 C 14.04 g/m*3 25.9 C 8.1 km/h
221 17-08-2022 20:20:00 25.8 C 13.96 g/m*3 25.8 C 6.4 km/h
222 17-08-2022 20:25:00 25.7 C 13.89 g/m*3 25.7 C 6.4 km/h
223 17-08-2022 20:30:00 25.6 C 14.05 g/m*3 25.6 C 4.8 km/h
224 17-08-2022 20:35:00 25.4 C 13.89 g/m*3 25.4 C 4.8 km/h
225 17-08-2022 20:40:00 25.3 C 14.05 g/m*3 25.3 C 4.8 km/h
Sensor: Nr:Datum:Temp:Abs-Feuchte:Windchill:Wind:
Aussen-T/F 226 17-08-2022 20:45:00 25.2 C 14.2 g/m*3 25.2 C 3.2 km/h
227 17-08-2022 20:50:00 25 C 14.27 g/m*3 25 C 0 km/h
228 17-08-2022 20:55:00 24.7 C 14.03 g/m*3 24.7 C 4.8 km/h
229 17-08-2022 21:00:00 24.3 C 13.94 g/m*3 24.3 C 1.6 km/h
230 17-08-2022 21:05:00 24 C 13.92 g/m*3 24 C 0 km/h
231 17-08-2022 21:10:00 23.6 C 13.82 g/m*3 23.6 C 0 km/h
232 17-08-2022 21:15:00 23.3 C 13.8 g/m*3 23.3 C 0 km/h
233 17-08-2022 21:20:00 23.1 C 13.85 g/m*3 23.1 C 0 km/h
234 17-08-2022 21:25:00 22.9 C 13.69 g/m*3 22.9 C 0 km/h
235 17-08-2022 21:30:00 22.8 C 13.82 g/m*3 22.8 C 0 km/h
236 17-08-2022 21:35:00 22.6 C 13.66 g/m*3 22.6 C 4.8 km/h
237 17-08-2022 21:40:00 22.4 C 13.7 g/m*3 22.4 C 0 km/h
238 17-08-2022 21:45:00 22.2 C 13.74 g/m*3 22.2 C 0 km/h
239 17-08-2022 21:50:00 22 C 13.59 g/m*3 22 C 0 km/h
240 17-08-2022 21:55:00 21.8 C 13.62 g/m*3 21.8 C 0 km/h
241 17-08-2022 22:00:00 21.7 C 13.54 g/m*3 21.7 C 0 km/h
242 17-08-2022 22:05:00 21.4 C 13.5 g/m*3 21.4 C 0 km/h
243 17-08-2022 22:10:00 21.3 C 13.42 g/m*3 21.3 C 0 km/h
244 17-08-2022 22:15:00 21.1 C 13.45 g/m*3 21.1 C 0 km/h
245 17-08-2022 22:20:00 20.9 C 13.3 g/m*3 20.9 C 0 km/h
246 17-08-2022 22:25:00 20.8 C 13.4 g/m*3 20.8 C 0 km/h
247 17-08-2022 22:30:00 20.7 C 13.32 g/m*3 20.7 C 0 km/h
248 17-08-2022 22:35:00 20.6 C 13.42 g/m*3 20.6 C 0 km/h
249 17-08-2022 22:40:00 20.4 C 13.27 g/m*3 20.4 C 0 km/h
250 17-08-2022 22:45:00 20.3 C 13.37 g/m*3 20.3 C 0 km/h
Sensor: Nr:Datum:Temp:Abs-Feuchte:Windchill:Wind:
Aussen-T/F 251 17-08-2022 22:50:00 20.3 C 13.37 g/m*3 20.3 C 0 km/h
252 17-08-2022 22:55:00 20.3 C 13.37 g/m*3 20.3 C 0 km/h
253 17-08-2022 23:00:00 20.2 C 13.46 g/m*3 20.2 C 0 km/h
254 17-08-2022 23:05:00 20.2 C 13.46 g/m*3 20.2 C 0 km/h
255 17-08-2022 23:10:00 20.2 C 13.46 g/m*3 20.2 C 0 km/h
256 17-08-2022 23:15:00 20.1 C 13.39 g/m*3 20.1 C 0 km/h
257 17-08-2022 23:20:00 20.1 C 13.56 g/m*3 20.1 C 0 km/h
258 17-08-2022 23:25:00 20.1 C 13.56 g/m*3 20.1 C 0 km/h
259 17-08-2022 23:30:00 20.1 C 13.56 g/m*3 20.1 C 0 km/h
260 17-08-2022 23:35:00 20.1 C 13.56 g/m*3 20.1 C 0 km/h
261 17-08-2022 23:40:00 20.1 C 13.56 g/m*3 20.1 C 0 km/h
262 17-08-2022 23:45:00 20 C 13.65 g/m*3 20 C 0 km/h
263 17-08-2022 23:50:00 19.9 C 13.57 g/m*3 19.9 C 0 km/h
264 17-08-2022 23:55:00 19.9 C 13.57 g/m*3 19.9 C 0 km/h
265 18-08-2022 00:00:00 19.9 C 13.74 g/m*3 19.9 C 0 km/h
266 18-08-2022 00:05:00 19.8 C 13.66 g/m*3 19.8 C 0 km/h
267 18-08-2022 00:10:00 19.8 C 13.66 g/m*3 19.8 C 0 km/h

Legende:
   Min
   Max


Maximal/Minimal-Werte vom 17.08.2022 - 18.08.2022

Sensor Min Max Avg
Temp
(Aussen-T/F)
16.8 °C
17-08-2022  06:30:00
30.6 °C
17-08-2022  16:35:00
22.55 °C
Abs-Feuchte
(Aussen-T/F)
12.01 g/m*3
17-08-2022  03:20:00
14.77 g/m*3
17-08-2022  13:10:00
13.35 g/m*3
Windchill
(Aussen-T/F)
16.8 C
17-08-2022  06:30:00
30.6 C
17-08-2022  16:35:00
22.47 C

Die Daten stammen von einer Davis Vantage Pro 2 Wetter-Station und werden unter Linux mit der Software wview2wettercgi und aufbereitet. Alle Angaben erfolgen ohne Gewähr für ihre Vollständigkeit oder Richtigkeit.
Kontakt: Rainer Krienke krienke@uni-koblenz.de . Meine Webseiten an der Uni Koblenz oder privat.
Version: $Revision: 0.78 $